Time;durP1;ratioP1;P1;durP2;ratioP2;P2;SDS_P1;SDS_P2;PMS_P1;PMS_P2;Temp;Humidity;BMP_temperature;BMP_pressure;BME280_temperature;BME280_humidity;BME280_pressure;Samples;Min_cycle;Max_cycle;Signal;HPM_P1;HPM_P2
2022/09/05 00:00:18;;;;;;;5.50;3.90;;;21.50;54.00;;;;;;4948409;28;20265;-74
2022/09/05 00:03:01;;;;;;;6.05;4.00;;;21.50;54.80;;;;;;4966749;28;20056;-75
2022/09/05 00:05:57;;;;;;;5.30;3.90;;;21.50;54.70;;;;;;4951283;28;20059;-74
2022/09/05 00:08:28;;;;;;;5.75;3.85;;;21.40;54.30;;;;;;4951034;28;20139;-74
2022/09/05 00:11:04;;;;;;;5.73;4.20;;;21.40;55.20;;;;;;4950276;28;20071;-74
2022/09/05 00:13:38;;;;;;;6.25;4.07;;;21.40;55.60;;;;;;4951038;28;21046;-74
2022/09/05 00:16:33;;;;;;;5.95;4.07;;;21.30;55.80;;;;;;4950819;28;20123;-74
2022/09/05 00:19:14;;;;;;;5.57;3.80;;;21.30;55.50;;;;;;4948375;28;20413;-74
2022/09/05 00:21:59;;;;;;;7.30;4.32;;;21.20;56.00;;;;;;4953088;28;20051;-74
2022/09/05 00:24:42;;;;;;;7.47;4.17;;;21.10;55.90;;;;;;4952347;28;20059;-74
2022/09/05 00:27:15;;;;;;;5.50;4.30;;;21.10;56.30;;;;;;4949967;28;20308;-74
2022/09/05 00:29:58;;;;;;;5.20;3.90;;;21.10;56.50;;;;;;4957463;28;20055;-74
2022/09/05 00:32:36;;;;;;;5.70;4.10;;;21.10;56.20;;;;;;4950834;28;20589;-74
2022/09/05 00:35:25;;;;;;;5.57;4.20;;;21.00;56.30;;;;;;4950727;28;20056;-74
2022/09/05 00:37:53;;;;;;;5.00;4.03;;;21.00;55.70;;;;;;4946709;28;20063;-74
2022/09/05 00:40:25;;;;;;;4.85;3.92;;;20.90;56.30;;;;;;4950706;28;20307;-74
2022/09/05 00:42:55;;;;;;;6.32;4.38;;;20.90;56.50;;;;;;4945379;28;20144;-74
2022/09/05 00:45:31;;;;;;;5.13;4.30;;;20.90;56.80;;;;;;4966294;28;20052;-74
2022/09/05 00:48:15;;;;;;;7.25;4.72;;;20.80;56.90;;;;;;4945999;28;20171;-74
2022/09/05 00:51:19;;;;;;;5.20;4.40;;;20.80;57.00;;;;;;4945676;28;20051;-74
2022/09/05 00:54:00;;;;;;;8.35;4.93;;;20.70;57.20;;;;;;4951211;28;20260;-74
2022/09/05 00:56:46;;;;;;;5.88;4.80;;;20.60;57.30;;;;;;4964536;28;20059;-74
2022/09/05 00:59:49;;;;;;;5.80;4.55;;;20.60;57.20;;;;;;4949287;28;20056;-74
2022/09/05 01:02:29;;;;;;;6.95;4.57;;;20.50;56.80;;;;;;4950147;28;20115;-74
2022/09/05 01:05:03;;;;;;;6.13;4.27;;;20.50;57.10;;;;;;4954187;28;20510;-74
2022/09/05 01:07:41;;;;;;;6.88;4.32;;;20.50;57.20;;;;;;4951360;28;20742;-74
2022/09/05 01:10:19;;;;;;;6.07;4.63;;;20.50;57.10;;;;;;4947602;28;20056;-74
2022/09/05 01:13:14;;;;;;;6.25;4.43;;;20.50;57.30;;;;;;4934937;28;20079;-74
2022/09/05 01:15:49;;;;;;;6.97;4.25;;;20.50;56.70;;;;;;4950193;28;20241;-74
2022/09/05 01:18:31;;;;;;;5.97;4.53;;;20.40;57.60;;;;;;4965582;28;20055;-74
2022/09/05 01:21:31;;;;;;;5.40;4.38;;;20.30;57.60;;;;;;4951060;28;20825;-74
2022/09/05 01:24:42;;;;;;;5.97;4.70;;;20.30;57.00;;;;;;4952492;28;20059;-75
2022/09/05 01:27:42;;;;;;;5.82;4.63;;;20.20;56.80;;;;;;4941061;28;20062;-74
2022/09/05 01:30:14;;;;;;;5.60;4.60;;;20.20;57.10;;;;;;4948077;28;20564;-74
2022/09/05 01:32:48;;;;;;;7.07;4.73;;;20.20;58.00;;;;;;4950261;28;20044;-74
2022/09/05 01:35:43;;;;;;;7.68;5.10;;;20.10;58.30;;;;;;4950663;28;20367;-74
2022/09/05 01:38:18;;;;;;;6.53;5.20;;;20.00;57.60;;;;;;4950138;28;20522;-74
2022/09/05 01:40:53;;;;;;;7.00;4.90;;;20.00;58.20;;;;;;4940464;28;20076;-74
2022/09/05 01:43:33;;;;;;;6.15;4.90;;;20.00;58.30;;;;;;4965432;28;20123;-74
2022/09/05 01:46:18;;;;;;;5.83;5.00;;;20.00;58.10;;;;;;4951292;28;20135;-74
2022/09/05 01:48:53;;;;;;;7.40;5.00;;;20.00;58.20;;;;;;4949368;28;20396;-74
2022/09/05 01:51:29;;;;;;;5.97;4.75;;;20.00;58.40;;;;;;4947573;28;20056;-74
2022/09/05 01:54:12;;;;;;;6.97;5.07;;;19.90;58.40;;;;;;4945540;28;20265;-74
2022/09/05 01:56:47;;;;;;;6.35;5.10;;;19.90;58.40;;;;;;4944039;28;20107;-74
2022/09/05 01:59:25;;;;;;;6.10;4.90;;;19.80;58.50;;;;;;4947757;28;20116;-74
2022/09/05 02:02:16;;;;;;;8.18;5.28;;;19.80;58.50;;;;;;4949475;28;21060;-74
2022/09/05 02:05:08;;;;;;;7.85;5.40;;;19.70;57.90;;;;;;4949662;28;20126;-74
2022/09/05 02:07:52;;;;;;;8.63;5.50;;;19.70;58.10;;;;;;4949812;28;20047;-74
2022/09/05 02:10:42;;;;;;;6.70;5.20;;;19.70;58.60;;;;;;4949895;28;20076;-74
2022/09/05 02:13:25;;;;;;;6.87;5.20;;;19.70;58.50;;;;;;4953275;28;20058;-74
2022/09/05 02:16:02;;;;;;;6.93;5.28;;;19.70;58.80;;;;;;4952783;28;20256;-74
2022/09/05 02:18:51;;;;;;;6.97;5.25;;;19.60;58.90;;;;;;4952894;28;20063;-74
2022/09/05 02:21:25;;;;;;;6.88;5.40;;;19.50;58.40;;;;;;4952465;28;20084;-74
2022/09/05 02:24:02;;;;;;;7.03;5.30;;;19.50;59.10;;;;;;4953177;28;20048;-74
2022/09/05 02:26:34;;;;;;;7.63;5.57;;;19.50;59.10;;;;;;4952415;28;20055;-74
2022/09/05 02:29:10;;;;;;;6.43;5.20;;;19.50;59.10;;;;;;4969285;28;20280;-74
2022/09/05 02:31:45;;;;;;;8.52;5.45;;;19.50;59.40;;;;;;4952380;28;20048;-74
2022/09/05 02:34:20;;;;;;;37.70;9.05;;;19.40;59.50;;;;;;4968773;28;20048;-74
2022/09/05 02:36:54;;;;;;;46.38;9.25;;;19.40;59.50;;;;;;4968208;28;20052;-74
2022/09/05 02:39:35;;;;;;;24.40;7.27;;;19.40;59.50;;;;;;4952785;28;20055;-74
2022/09/05 02:42:12;;;;;;;11.95;6.30;;;19.30;59.20;;;;;;4953100;28;20249;-74
2022/09/05 02:44:51;;;;;;;15.52;6.70;;;19.30;59.40;;;;;;4968625;28;22318;-74
2022/09/05 02:47:23;;;;;;;11.35;6.07;;;19.30;59.60;;;;;;4953996;28;20159;-74
2022/09/05 02:50:01;;;;;;;9.63;5.68;;;19.30;59.50;;;;;;4951612;28;20142;-74
2022/09/05 02:52:32;;;;;;;12.07;5.60;;;19.20;59.50;;;;;;4968058;28;20545;-74
2022/09/05 02:55:00;;;;;;;9.98;5.80;;;19.20;59.50;;;;;;4952169;28;20296;-74
2022/09/05 02:57:36;;;;;;;9.52;6.00;;;19.20;59.50;;;;;;4953371;28;20052;-74
2022/09/05 03:00:10;;;;;;;7.50;5.82;;;19.10;59.80;;;;;;4951629;28;21003;-74
2022/09/05 03:03:03;;;;;;;8.98;5.85;;;19.10;59.70;;;;;;4951793;28;20087;-74
2022/09/05 03:05:36;;;;;;;9.53;6.43;;;19.10;59.30;;;;;;4951633;28;20052;-74
2022/09/05 03:08:13;;;;;;;6.88;6.10;;;19.10;59.80;;;;;;4952701;28;20843;-74
2022/09/05 03:11:25;;;;;;;7.05;6.30;;;19.00;59.70;;;;;;4952166;28;20054;-74
2022/09/05 03:14:23;;;;;;;8.32;5.97;;;19.00;59.30;;;;;;4905262;29;20064;-74
2022/09/05 03:17:29;;;;;;;7.80;6.05;;;19.00;59.30;;;;;;4945360;28;20568;-74
2022/09/05 03:20:41;;;;;;;8.50;6.40;;;18.90;59.50;;;;;;4947299;28;20055;-74
2022/09/05 03:23:38;;;;;;;7.32;5.45;;;18.90;59.40;;;;;;4926042;28;20296;-74
2022/09/05 03:26:37;;;;;;;9.73;6.10;;;18.80;59.50;;;;;;4937947;28;20127;-74
2022/09/05 03:29:27;;;;;;;7.90;5.82;;;18.80;59.20;;;;;;4930573;28;20147;-75
2022/09/05 03:32:20;;;;;;;8.68;5.95;;;18.80;59.50;;;;;;4967773;28;20131;-74
2022/09/05 03:35:35;;;;;;;7.77;6.03;;;18.80;59.60;;;;;;4945801;28;20128;-74
2022/09/05 03:38:29;;;;;;;8.30;6.20;;;18.70;59.50;;;;;;4948051;28;20299;-74
2022/09/05 03:41:08;;;;;;;8.07;6.00;;;18.70;59.60;;;;;;4952754;28;20072;-75
2022/09/05 03:43:55;;;;;;;7.43;5.97;;;18.70;60.20;;;;;;4950979;28;20079;-74
2022/09/05 03:46:47;;;;;;;9.52;5.90;;;18.60;60.00;;;;;;4967728;28;20491;-74
2022/09/05 03:49:31;;;;;;;8.00;6.20;;;18.60;60.30;;;;;;4951343;28;20063;-74
2022/09/05 03:52:14;;;;;;;8.88;6.68;;;18.60;60.70;;;;;;4946735;28;20260;-74
2022/09/05 03:55:03;;;;;;;8.25;6.18;;;18.50;60.80;;;;;;4964786;28;20047;-74
2022/09/05 03:58:08;;;;;;;7.88;6.22;;;18.40;60.40;;;;;;4965861;28;20052;-74
2022/09/05 04:00:37;;;;;;;8.85;6.40;;;18.40;60.50;;;;;;4947844;28;20052;-74
2022/09/05 04:03:13;;;;;;;8.13;5.93;;;18.30;61.10;;;;;;4962630;28;20099;-74
2022/09/05 04:05:45;;;;;;;7.03;6.07;;;18.30;60.90;;;;;;4942058;28;20320;-74
2022/09/05 04:08:20;;;;;;;8.18;6.35;;;18.20;61.00;;;;;;4966443;28;20166;-74
2022/09/05 04:10:55;;;;;;;8.20;6.88;;;18.20;61.20;;;;;;4949397;28;20964;-75
2022/09/05 04:13:28;;;;;;;8.57;6.40;;;18.20;60.90;;;;;;4968026;28;20130;-74
2022/09/05 04:16:07;;;;;;;8.93;6.43;;;18.20;61.20;;;;;;4967007;28;20056;-74
2022/09/05 04:18:39;;;;;;;7.30;6.53;;;18.10;61.30;;;;;;4951930;28;20284;-74
2022/09/05 04:21:12;;;;;;;7.95;6.38;;;18.10;61.50;;;;;;4951504;28;20130;-75
2022/09/05 04:23:59;;;;;;;7.50;6.05;;;18.10;61.60;;;;;;4950713;28;20088;-74
2022/09/05 04:26:56;;;;;;;9.20;6.47;;;18.10;61.60;;;;;;4950860;28;20066;-74
2022/09/05 04:29:34;;;;;;;7.77;6.80;;;18.00;61.10;;;;;;4934878;28;20143;-74
2022/09/05 04:32:13;;;;;;;8.57;6.68;;;18.00;61.60;;;;;;4953114;28;20655;-74
2022/09/05 04:34:56;;;;;;;9.35;6.88;;;18.00;61.80;;;;;;4950094;28;20066;-74
2022/09/05 04:40:56;;;;;;;8.32;6.80;;;18.00;61.30;;;;;;4929540;29;20056;-75
2022/09/05 04:43:31;;;;;;;10.77;7.40;;;17.90;61.80;;;;;;4915780;29;20103;-74
2022/09/05 04:46:09;;;;;;;8.55;6.93;;;17.80;61.80;;;;;;4929871;29;20259;-74
2022/09/05 04:48:43;;;;;;;8.43;7.20;;;17.80;61.80;;;;;;4914725;29;20060;-74
2022/09/05 04:51:26;;;;;;;9.32;6.65;;;17.80;62.10;;;;;;4930334;29;20578;-74
2022/09/05 04:54:06;;;;;;;8.68;7.00;;;17.80;62.10;;;;;;4931498;29;20060;-74
2022/09/05 04:56:41;;;;;;;9.80;7.40;;;17.80;62.10;;;;;;4914228;29;20075;-74
2022/09/05 04:59:16;;;;;;;8.57;7.15;;;17.80;62.10;;;;;;4931890;29;20348;-74
2022/09/05 05:01:50;;;;;;;9.68;7.40;;;17.80;62.10;;;;;;4928821;28;20082;-74
2022/09/05 05:04:21;;;;;;;31.30;9.52;;;17.80;62.10;;;;;;4913526;29;20180;-74
2022/09/05 05:06:54;;;;;;;85.43;13.43;;;17.80;62.20;;;;;;4931060;29;20111;-74
2022/09/05 05:09:27;;;;;;;25.53;8.73;;;17.80;62.60;;;;;;4929282;29;20063;-74
2022/09/05 05:11:57;;;;;;;19.98;7.80;;;17.70;62.60;;;;;;4934853;28;20407;-74
2022/09/05 05:14:29;;;;;;;17.95;7.57;;;17.70;62.60;;;;;;4932990;29;20056;-75
2022/09/05 05:17:05;;;;;;;11.75;7.38;;;17.60;62.50;;;;;;4924933;29;20052;-74
2022/09/05 05:19:39;;;;;;;15.88;7.45;;;17.60;62.70;;;;;;4931467;29;20076;-74
2022/09/05 05:22:13;;;;;;;16.20;8.10;;;17.60;62.90;;;;;;4931065;29;20100;-74
2022/09/05 05:24:44;;;;;;;108.75;15.05;;;17.60;62.90;;;;;;4913993;29;20305;-74
2022/09/05 05:27:20;;;;;;;194.68;22.77;;;17.50;62.90;;;;;;4929620;29;20092;-74
2022/09/05 05:29:51;;;;;;;216.65;24.33;;;17.50;63.00;;;;;;4914266;29;20063;-74
2022/09/05 05:32:24;;;;;;;65.82;12.35;;;17.50;63.40;;;;;;4932298;29;20083;-74
2022/09/05 05:34:54;;;;;;;16.23;7.70;;;17.50;63.60;;;;;;4931423;28;20547;-74
2022/09/05 05:37:25;;;;;;;11.68;7.90;;;17.50;63.70;;;;;;4915511;29;20281;-74
2022/09/05 05:40:03;;;;;;;11.93;7.82;;;17.50;63.80;;;;;;4930609;28;20143;-74
2022/09/05 05:42:30;;;;;;;40.67;11.02;;;17.40;63.90;;;;;;4929501;29;20063;-74
2022/09/05 05:44:58;;;;;;;32.05;9.95;;;17.40;64.10;;;;;;4931147;29;20056;-74
2022/09/05 05:47:31;;;;;;;14.00;8.57;;;17.40;64.40;;;;;;4919953;29;20513;-74
2022/09/05 05:50:02;;;;;;;12.55;7.57;;;17.40;64.50;;;;;;4932787;28;20288;-74
2022/09/05 05:52:50;;;;;;;40.25;10.77;;;17.30;64.50;;;;;;4935459;29;20499;-74
2022/09/05 05:55:54;;;;;;;122.55;16.60;;;17.40;64.10;;;;;;4933331;28;20605;-75
2022/09/05 05:58:34;;;;;;;21.42;8.90;;;17.30;63.70;;;;;;4914533;29;20178;-75
2022/09/05 06:01:46;;;;;;;11.20;7.73;;;17.30;64.40;;;;;;4916618;29;20099;-76
2022/09/05 06:04:39;;;;;;;10.98;7.82;;;17.30;64.10;;;;;;4931867;29;20279;-75
2022/09/05 06:07:15;;;;;;;10.77;8.30;;;17.30;64.20;;;;;;4931496;29;20155;-76
2022/09/05 06:10:12;;;;;;;10.05;7.97;;;17.30;65.00;;;;;;4916489;29;20120;-75
2022/09/05 06:13:21;;;;;;;10.13;8.32;;;17.30;65.40;;;;;;4915768;29;20082;-75
2022/09/05 06:16:18;;;;;;;10.77;8.33;;;17.30;65.10;;;;;;4931138;29;20060;-71
2022/09/05 06:19:17;;;;;;;11.98;8.20;;;17.20;65.10;;;;;;4930936;29;20333;-72
2022/09/05 06:22:13;;;;;;;10.98;8.68;;;17.20;64.30;;;;;;4932425;28;20052;-71
2022/09/05 06:25:07;;;;;;;10.85;8.82;;;17.30;65.60;;;;;;4935103;29;20147;-72
2022/09/05 06:27:59;;;;;;;11.98;8.68;;;17.30;66.50;;;;;;4932518;29;20059;-71
2022/09/05 06:30:31;;;;;;;10.03;7.97;;;17.30;67.20;;;;;;4917884;29;20060;-71
2022/09/05 06:33:09;;;;;;;12.00;8.85;;;17.30;67.20;;;;;;4933085;29;20891;-72
2022/09/05 06:35:52;;;;;;;9.85;8.63;;;17.30;67.70;;;;;;4930872;29;20083;-73
2022/09/05 06:38:36;;;;;;;10.15;8.68;;;17.30;68.30;;;;;;4931537;29;20051;-72
2022/09/05 06:41:20;;;;;;;13.77;9.32;;;17.40;68.20;;;;;;4930265;29;20048;-72
2022/09/05 06:44:33;;;;;;;12.17;9.00;;;17.40;68.70;;;;;;4934054;29;20063;-71
2022/09/05 06:47:05;;;;;;;10.27;7.60;;;17.40;69.30;;;;;;4900635;29;20293;-72
2022/09/05 06:49:48;;;;;;;11.43;8.82;;;17.50;68.90;;;;;;4934257;29;20062;-72
2022/09/05 06:52:55;;;;;;;10.25;8.18;;;17.50;69.00;;;;;;4930735;29;20064;-71
2022/09/05 06:55:43;;;;;;;11.10;8.23;;;17.50;68.70;;;;;;4914818;29;20054;-70
2022/09/05 06:58:40;;;;;;;10.53;8.03;;;17.50;68.40;;;;;;4928952;28;20737;-72
2022/09/05 07:01:11;;;;;;;12.27;8.38;;;17.60;68.40;;;;;;4910359;29;20376;-71
2022/09/05 07:03:57;;;;;;;11.20;8.30;;;17.60;68.50;;;;;;4932912;29;20155;-73
2022/09/05 07:06:34;;;;;;;10.18;9.00;;;17.80;69.00;;;;;;4929522;29;20056;-74
2022/09/05 07:09:16;;;;;;;8.85;7.93;;;17.80;68.90;;;;;;4915508;29;20502;-73
2022/09/05 07:11:53;;;;;;;11.77;9.17;;;17.80;68.70;;;;;;4930831;29;20044;-73
2022/09/05 07:14:22;;;;;;;11.00;8.93;;;17.90;68.70;;;;;;4917351;29;20301;-72
2022/09/05 07:16:53;;;;;;;9.52;8.30;;;18.00;68.60;;;;;;4934805;29;20056;-74
2022/09/05 07:19:26;;;;;;;11.90;8.68;;;18.00;68.70;;;;;;4932910;29;20052;-72
2022/09/05 07:22:12;;;;;;;10.98;9.18;;;18.00;68.80;;;;;;4935086;29;20052;-74
2022/09/05 07:24:43;;;;;;;13.17;8.70;;;18.10;68.80;;;;;;4934712;29;20143;-73
2022/09/05 07:27:24;;;;;;;16.15;9.38;;;18.10;68.60;;;;;;4929669;29;20344;-74
2022/09/05 07:29:56;;;;;;;11.32;8.63;;;18.20;68.70;;;;;;4916819;29;20066;-74
2022/09/05 07:32:24;;;;;;;10.70;9.13;;;18.30;69.10;;;;;;4936477;28;20061;-74
2022/09/05 07:34:52;;;;;;;9.40;8.27;;;18.30;69.10;;;;;;4917236;29;20052;-76
2022/09/05 07:37:23;;;;;;;10.30;8.50;;;18.40;69.10;;;;;;4932402;29;20518;-74
2022/09/05 07:39:53;;;;;;;18.42;8.50;;;18.50;69.10;;;;;;4932306;29;20269;-73
2022/09/05 07:42:26;;;;;;;13.27;8.50;;;18.50;69.20;;;;;;4930620;29;20079;-74
2022/09/05 07:44:57;;;;;;;10.70;8.60;;;18.60;69.30;;;;;;4932395;29;20516;-73
2022/09/05 07:47:28;;;;;;;9.85;8.30;;;18.70;69.30;;;;;;4933241;29;20048;-72
2022/09/05 07:49:58;;;;;;;11.43;8.47;;;18.80;69.20;;;;;;4932676;28;20066;-72
2022/09/05 07:52:26;;;;;;;10.10;8.15;;;19.00;69.30;;;;;;4916960;29;20290;-72
2022/09/05 07:54:57;;;;;;;9.68;8.63;;;19.10;69.20;;;;;;4915391;29;20519;-71
2022/09/05 07:57:30;;;;;;;12.45;8.65;;;19.20;69.10;;;;;;4929322;29;20157;-70
2022/09/05 08:00:04;;;;;;;11.45;8.50;;;19.30;69.10;;;;;;4933549;29;20123;-71
2022/09/05 08:02:43;;;;;;;11.00;7.83;;;19.40;69.00;;;;;;4932537;29;20044;-71
2022/09/05 08:05:14;;;;;;;11.30;7.95;;;19.50;68.80;;;;;;4931852;29;20281;-71
2022/09/05 08:07:45;;;;;;;10.95;8.40;;;19.50;68.70;;;;;;4927537;28;20593;-71
2022/09/05 08:10:15;;;;;;;10.05;8.07;;;19.70;68.70;;;;;;4934326;28;20058;-71
2022/09/05 08:12:49;;;;;;;9.52;7.85;;;19.70;68.60;;;;;;4952872;28;20188;-71
2022/09/05 08:15:21;;;;;;;11.53;7.80;;;19.90;68.40;;;;;;4937257;28;20056;-71
2022/09/05 08:17:57;;;;;;;9.90;7.97;;;20.00;68.10;;;;;;4933926;29;21359;-72
2022/09/05 08:20:35;;;;;;;11.30;8.45;;;20.00;68.00;;;;;;4916451;29;20427;-72
2022/09/05 08:23:09;;;;;;;8.60;7.35;;;20.20;67.90;;;;;;4916725;29;20242;-72
2022/09/05 08:25:49;;;;;;;8.32;6.82;;;20.30;67.80;;;;;;4934166;29;20060;-73
2022/09/05 08:28:24;;;;;;;8.83;7.00;;;20.40;67.80;;;;;;4916306;29;20082;-73
2022/09/05 08:31:00;;;;;;;21.52;8.40;;;20.50;67.50;;;;;;4916085;29;20684;-73
2022/09/05 08:33:33;;;;;;;13.02;7.07;;;20.60;67.10;;;;;;4914931;29;20064;-74
2022/09/05 08:36:05;;;;;;;18.67;7.78;;;20.70;66.70;;;;;;4932162;29;20128;-74
2022/09/05 08:38:35;;;;;;;8.45;6.30;;;20.80;66.50;;;;;;4933316;29;20118;-74
2022/09/05 08:41:10;;;;;;;10.57;7.40;;;20.90;66.40;;;;;;4938715;28;20100;-74
2022/09/05 08:43:47;;;;;;;9.38;6.90;;;21.00;66.20;;;;;;4951409;28;20276;-74
2022/09/05 08:46:23;;;;;;;9.77;7.32;;;21.10;66.10;;;;;;4936399;28;20584;-74
2022/09/05 08:49:14;;;;;;;10.32;6.63;;;21.20;66.00;;;;;;4933113;29;21329;-75
2022/09/05 08:51:43;;;;;;;42.15;8.45;;;21.30;65.80;;;;;;4933525;29;20982;-75
2022/09/05 08:54:21;;;;;;;11.73;6.50;;;21.40;65.70;;;;;;4932296;29;20138;-74
2022/09/05 08:57:07;;;;;;;7.88;6.50;;;21.50;65.60;;;;;;4932145;29;21305;-74
2022/09/05 08:59:45;;;;;;;7.68;6.20;;;21.60;65.90;;;;;;4913985;29;20054;-74
2022/09/05 09:02:40;;;;;;;8.70;6.82;;;21.70;65.70;;;;;;4931813;29;20056;-73
2022/09/05 09:05:16;;;;;;;9.82;6.88;;;21.90;65.30;;;;;;4914300;29;20048;-73
2022/09/05 09:07:51;;;;;;;8.07;6.40;;;22.00;65.00;;;;;;4931735;29;20066;-74
2022/09/05 09:10:28;;;;;;;9.27;6.72;;;22.10;64.70;;;;;;4915488;29;20268;-74
2022/09/05 09:13:16;;;;;;;8.35;5.60;;;22.20;64.30;;;;;;4933463;29;20059;-73
2022/09/05 09:15:52;;;;;;;8.80;6.20;;;22.30;64.40;;;;;;4928806;28;20048;-74
2022/09/05 09:18:20;;;;;;;9.95;6.03;;;22.50;64.40;;;;;;4951155;28;20062;-74
2022/09/05 09:20:51;;;;;;;10.37;5.97;;;22.50;64.10;;;;;;4952403;28;20052;-73
2022/09/05 09:23:40;;;;;;;11.65;5.78;;;22.60;63.70;;;;;;4938240;28;20307;-73
2022/09/05 09:26:14;;;;;;;9.65;5.50;;;22.70;63.40;;;;;;4935802;29;20060;-74
2022/09/05 09:28:46;;;;;;;8.60;6.00;;;22.90;62.90;;;;;;4918053;29;20056;-74
2022/09/05 09:31:27;;;;;;;9.57;5.53;;;23.00;62.60;;;;;;4934387;29;20060;-74
2022/09/05 09:34:05;;;;;;;8.43;5.33;;;23.10;62.50;;;;;;4918127;29;20117;-74
2022/09/05 09:36:58;;;;;;;7.28;5.25;;;23.20;62.20;;;;;;4936932;28;20379;-75
2022/09/05 09:39:34;;;;;;;7.78;4.72;;;23.30;62.00;;;;;;4949136;28;20048;-75
2022/09/05 09:42:14;;;;;;;6.88;5.32;;;23.40;61.60;;;;;;4947466;28;20048;-74
2022/09/05 09:45:16;;;;;;;11.52;5.70;;;23.50;61.20;;;;;;4918218;29;20052;-75
2022/09/05 09:48:14;;;;;;;8.50;4.87;;;23.60;61.40;;;;;;4931569;29;20132;-74
2022/09/05 09:50:58;;;;;;;7.20;5.22;;;23.80;61.30;;;;;;4915420;29;20771;-75
2022/09/05 09:53:51;;;;;;;8.65;5.07;;;23.90;60.90;;;;;;4936420;28;20055;-76
2022/09/05 09:56:55;;;;;;;19.08;6.28;;;24.00;60.80;;;;;;4915663;29;20064;-75
2022/09/05 09:59:40;;;;;;;8.20;5.05;;;24.20;60.50;;;;;;4931948;29;20056;-75
2022/09/05 10:02:32;;;;;;;6.97;4.90;;;24.20;60.30;;;;;;4926227;29;20052;-75
2022/09/05 10:05:25;;;;;;;12.85;5.78;;;24.40;60.10;;;;;;4930840;29;20781;-74
2022/09/05 10:08:24;;;;;;;8.00;4.93;;;24.50;59.60;;;;;;4933198;29;20104;-75
2022/09/05 10:11:13;;;;;;;6.32;4.35;;;24.60;58.70;;;;;;4916373;29;20052;-75
2022/09/05 10:14:11;;;;;;;14.75;5.30;;;24.80;58.00;;;;;;4917575;29;20578;-73
2022/09/05 10:17:06;;;;;;;8.50;4.80;;;24.90;58.10;;;;;;4932379;29;20048;-74
2022/09/05 10:19:54;;;;;;;5.57;4.35;;;25.00;58.00;;;;;;4915919;29;21116;-75
2022/09/05 10:23:07;;;;;;;8.00;4.07;;;25.20;57.90;;;;;;4933354;29;20048;-74
2022/09/05 10:26:07;;;;;;;6.32;4.30;;;25.30;57.50;;;;;;4933775;29;20056;-74
2022/09/05 10:28:42;;;;;;;7.88;4.28;;;25.50;57.10;;;;;;4913360;29;20052;-74
2022/09/05 10:31:17;;;;;;;6.13;3.93;;;25.60;56.60;;;;;;4898455;29;20057;-75
2022/09/05 10:33:55;;;;;;;4.65;3.92;;;25.60;56.20;;;;;;4899436;29;20982;-72
2022/09/05 10:36:24;;;;;;;6.55;4.40;;;25.70;55.80;;;;;;4924971;29;20501;-73
2022/09/05 10:39:15;;;;;;;6.07;3.88;;;25.80;55.80;;;;;;4919336;28;20055;-75
2022/09/05 10:41:48;;;;;;;6.07;3.47;;;25.80;55.60;;;;;;4937403;28;20059;-75
2022/09/05 10:44:23;;;;;;;5.33;3.70;;;26.00;55.20;;;;;;4952848;28;20059;-75
2022/09/05 10:46:59;;;;;;;6.28;3.85;;;26.00;55.00;;;;;;4953443;28;20671;-74
2022/09/05 10:49:30;;;;;;;6.68;4.03;;;26.10;54.20;;;;;;4952905;28;20847;-73
2022/09/05 10:52:02;;;;;;;4.90;3.92;;;26.20;54.10;;;;;;4942798;28;20063;-73
2022/09/05 10:54:59;;;;;;;5.13;3.72;;;26.40;54.00;;;;;;4916027;29;20048;-73
2022/09/05 10:57:38;;;;;;;5.57;4.07;;;26.40;53.30;;;;;;4930320;29;20913;-75
2022/09/05 11:00:15;;;;;;;5.30;3.38;;;26.50;53.50;;;;;;4931304;29;20260;-75
2022/09/05 11:02:43;;;;;;;5.18;3.10;;;26.60;53.20;;;;;;4930108;29;20501;-73
2022/09/05 11:05:22;;;;;;;5.57;3.20;;;26.70;52.60;;;;;;4932707;29;20478;-73
2022/09/05 11:07:58;;;;;;;7.07;2.80;;;26.80;52.30;;;;;;4930490;28;20048;-74
2022/09/05 11:10:34;;;;;;;4.13;2.53;;;26.90;51.80;;;;;;4916096;29;20602;-74
2022/09/05 11:13:15;;;;;;;5.45;2.90;;;27.00;51.50;;;;;;4917305;29;20341;-74
2022/09/05 11:15:58;;;;;;;4.93;2.90;;;27.10;51.40;;;;;;4931717;28;20048;-75
2022/09/05 11:18:45;;;;;;;7.13;3.03;;;27.20;50.80;;;;;;4916716;29;20060;-73
2022/09/05 11:21:20;;;;;;;4.22;2.95;;;27.30;51.10;;;;;;4933401;29;20136;-74
2022/09/05 11:23:54;;;;;;;4.70;2.73;;;27.40;50.70;;;;;;4917074;29;20056;-74
2022/09/05 11:26:33;;;;;;;4.43;2.78;;;27.50;50.30;;;;;;4930355;29;20794;-74
2022/09/05 11:29:06;;;;;;;4.53;2.67;;;27.60;50.00;;;;;;4928779;29;20685;-74
2022/09/05 11:31:55;;;;;;;3.83;2.78;;;27.70;50.00;;;;;;4915055;29;20052;-74
2022/09/05 11:34:56;;;;;;;4.05;2.90;;;27.80;49.80;;;;;;4929191;29;20423;-74
2022/09/05 11:37:41;;;;;;;4.17;2.90;;;28.00;49.40;;;;;;4913411;29;20839;-74
2022/09/05 11:40:33;;;;;;;4.78;3.05;;;28.10;48.70;;;;;;4929493;28;20671;-74
2022/09/05 11:43:49;;;;;;;4.50;3.17;;;28.20;48.10;;;;;;4931120;29;20088;-74
2022/09/05 11:46:27;;;;;;;5.15;2.90;;;28.30;47.30;;;;;;4934381;29;20052;-74
2022/09/05 11:49:33;;;;;;;5.78;3.63;;;28.30;47.40;;;;;;4933376;29;20467;-74
2022/09/05 11:52:39;;;;;;;4.77;3.30;;;28.40;47.30;;;;;;4913963;29;20160;-74
2022/09/05 11:55:53;;;;;;;5.70;3.38;;;28.50;47.50;;;;;;4898140;29;20253;-74
2022/09/05 11:58:53;;;;;;;5.57;3.50;;;28.50;47.20;;;;;;4915425;29;20059;-74
2022/09/05 12:01:32;;;;;;;5.30;3.38;;;28.50;46.50;;;;;;4875261;29;20044;-74
2022/09/05 12:04:18;;;;;;;6.50;3.38;;;28.60;46.90;;;;;;4915308;29;20088;-74
2022/09/05 12:07:09;;;;;;;4.60;2.97;;;28.60;46.80;;;;;;4897895;29;20057;-74
2022/09/05 12:09:47;;;;;;;4.97;2.80;;;28.70;46.80;;;;;;4912959;29;20775;-74
2022/09/05 12:12:23;;;;;;;4.30;2.85;;;28.70;46.60;;;;;;4896910;29;20059;-74
2022/09/05 12:15:03;;;;;;;6.32;3.13;;;28.90;46.00;;;;;;4913750;29;20057;-74
2022/09/05 12:17:36;;;;;;;4.85;3.15;;;28.90;45.80;;;;;;4898426;29;20052;-74
2022/09/05 12:20:07;;;;;;;5.17;3.17;;;28.90;45.40;;;;;;4913389;29;20053;-74
2022/09/05 12:22:36;;;;;;;4.32;2.90;;;28.90;44.70;;;;;;4917421;29;20281;-74
2022/09/05 12:25:32;;;;;;;4.93;2.92;;;29.00;44.60;;;;;;4916349;29;20052;-75
2022/09/05 12:28:06;;;;;;;4.00;2.60;;;29.00;45.20;;;;;;4931107;29;20087;-75
2022/09/05 12:30:38;;;;;;;12.43;3.40;;;29.10;45.00;;;;;;4931963;28;20558;-75
2022/09/05 12:33:21;;;;;;;5.03;2.70;;;29.10;44.30;;;;;;4916059;29;20055;-72
2022/09/05 12:35:54;;;;;;;4.45;2.70;;;29.10;43.90;;;;;;4915881;29;20273;-75
2022/09/05 12:38:36;;;;;;;5.03;2.95;;;29.20;44.20;;;;;;4914873;29;20948;-74
2022/09/05 12:41:09;;;;;;;3.80;2.88;;;29.20;44.00;;;;;;4915549;29;20048;-74
2022/09/05 12:43:42;;;;;;;3.70;2.90;;;29.30;43.60;;;;;;4932645;29;20060;-74
2022/09/05 12:46:17;;;;;;;4.73;3.20;;;29.40;43.80;;;;;;4929040;29;20056;-75
2022/09/05 12:48:52;;;;;;;4.88;3.03;;;29.50;43.00;;;;;;4915097;29;21010;-74
2022/09/05 12:51:21;;;;;;;5.28;3.20;;;29.50;43.20;;;;;;4929725;29;20056;-74
2022/09/05 12:53:53;;;;;;;5.78;3.92;;;29.60;42.90;;;;;;4916070;29;20234;-75
2022/09/05 12:56:30;;;;;;;4.50;3.45;;;29.70;42.30;;;;;;4915684;29;20051;-74
2022/09/05 12:58:58;;;;;;;5.07;3.60;;;29.70;41.90;;;;;;4933043;29;20056;-74
2022/09/05 13:01:30;;;;;;;5.13;3.50;;;29.70;42.10;;;;;;4933321;29;20261;-75
2022/09/05 13:04:01;;;;;;;5.80;3.38;;;29.70;42.00;;;;;;4933133;29;20063;-75
2022/09/05 13:06:34;;;;;;;4.60;3.20;;;29.70;41.90;;;;;;4932896;29;20059;-75
2022/09/05 13:09:05;;;;;;;4.88;3.58;;;29.70;42.20;;;;;;4928290;28;20048;-75
2022/09/05 13:11:42;;;;;;;4.57;3.40;;;29.70;42.10;;;;;;4916001;29;20060;-75
2022/09/05 13:14:19;;;;;;;4.45;3.03;;;29.70;42.20;;;;;;4915926;29;20271;-75
2022/09/05 13:16:49;;;;;;;3.70;3.00;;;29.70;42.30;;;;;;4930192;29;20060;-75
2022/09/05 13:19:27;;;;;;;5.75;3.30;;;29.80;42.30;;;;;;4929935;29;20139;-75
2022/09/05 13:21:57;;;;;;;12.38;3.55;;;29.90;41.70;;;;;;4914792;29;20052;-75
2022/09/05 13:24:29;;;;;;;5.60;3.17;;;29.90;41.70;;;;;;4915279;29;20184;-75
2022/09/05 13:27:04;;;;;;;3.92;3.08;;;30.00;41.50;;;;;;4929044;29;20763;-75
2022/09/05 13:29:36;;;;;;;6.22;3.53;;;30.00;41.50;;;;;;4914649;29;20059;-75
2022/09/05 13:32:11;;;;;;;7.43;3.55;;;30.00;41.60;;;;;;4932045;29;20139;-75
2022/09/05 13:34:42;;;;;;;5.35;3.33;;;30.10;42.20;;;;;;4928428;29;20048;-75
2022/09/05 13:37:17;;;;;;;6.33;3.30;;;30.10;42.70;;;;;;4932132;28;20147;-75
2022/09/05 13:39:52;;;;;;;6.82;3.45;;;30.20;42.80;;;;;;4914261;29;20348;-75
2022/09/05 13:42:21;;;;;;;5.43;3.20;;;30.30;42.70;;;;;;4931645;29;20060;-75
2022/09/05 13:44:52;;;;;;;5.18;3.55;;;30.30;42.50;;;;;;4915139;29;20147;-75
2022/09/05 13:47:49;;;;;;;5.10;3.40;;;30.50;42.50;;;;;;4932200;29;20059;-75
2022/09/05 13:50:22;;;;;;;6.63;3.77;;;30.60;42.20;;;;;;4913765;29;20135;-75
2022/09/05 13:52:54;;;;;;;4.80;3.13;;;30.70;41.80;;;;;;4914997;29;20360;-75
2022/09/05 13:55:24;;;;;;;4.80;3.45;;;30.70;42.20;;;;;;4915255;29;20132;-75